»·PEaware :: PH-KIM KSMX-KSBA

PH-KIM :: KSMX-KSBA

FLIGHT INFORMATION

Flight Status: Arrived
Operator: Privately registered:
Netherlands
More flights under this callsign
Pilot: Kim B. (19519)
Aircraft: Unknown
(DA62)
More flights by this aircraft type
Origin: KSMX Santa Maria Pub/Capt Hancock
United States
Destination: KSBA Santa Barbara Mun
United States
More flights between these airports :: More routes between these airports
Route: BUELT4 GVO
File this flight plan on PilotEdge
Remarks:
Altitude:
(Current/Filed)
5,000ft
Speed:
(Current/Filed)
150kts
Departed: 13-Sep-18 01:46 PM
Arrived: 13-Sep-18 02:09 PM
Distance/Time
Traveled:
42nm/0:23
Distance/Time
To Go:
Arrived

Flight Plot

Page will automatically refresh every two minutes.

Flight plan parsing failed; only flown route is shown


Map Options




Map Legend


Flown Route
Filed Route
Departure Airport
Arrival Airport
Navaid (VOR, NDB)
Fix

Horizontal Profiles

Position Reports

Time Latitude Longitude Heading Altitude Ground
Speed
13-Sep-18 13:30 34.896838 -120.446219 221 265ft 0kts
13-Sep-18 13:31 34.896838 -120.446219 221 265ft 0kts
13-Sep-18 13:32 34.896838 -120.446219 221 265ft 0kts
13-Sep-18 13:33 34.896838 -120.446219 221 265ft 0kts
13-Sep-18 13:34 34.896838 -120.446219 221 265ft 0kts
13-Sep-18 13:35 34.896838 -120.446219 221 265ft 0kts
13-Sep-18 13:36 34.896838 -120.446219 221 265ft 0kts
13-Sep-18 13:37 34.896838 -120.446219 221 265ft 0kts
13-Sep-18 13:38 34.896838 -120.446219 221 265ft 0kts
13-Sep-18 13:39 34.896838 -120.446219 221 265ft 0kts
13-Sep-18 13:40 34.896838 -120.446219 221 265ft 0kts
13-Sep-18 13:41 34.896838 -120.446219 221 265ft 0kts
13-Sep-18 13:42 34.896838 -120.446219 221 265ft 0kts
13-Sep-18 13:43 34.896838 -120.446219 221 265ft 0kts
13-Sep-18 13:44 34.896838 -120.446219 221 265ft 0kts
13-Sep-18 13:45 34.896777 -120.446331 263 265ft 4kts
13-Sep-18 13:46 34.894936 -120.445902 144 265ft 0kts
13-Sep-18 13:47 34.893175 -120.444896 168 265ft 0kts
13-Sep-18 13:48 34.894349 -120.447614 314 265ft 62kts
13-Sep-18 13:49 34.912593 -120.471335 314 696ft 102kts
13-Sep-18 13:50 34.927656 -120.450428 126 1574ft 134kts
13-Sep-18 13:51 34.896338 -120.454680 209 2649ft 122kts
13-Sep-18 13:52 34.863850 -120.451309 150 3748ft 132kts
13-Sep-18 13:53 34.833127 -120.426275 151 4837ft 134kts
13-Sep-18 13:54 34.796969 -120.396458 150 4982ft 171kts
13-Sep-18 13:55 34.758027 -120.364242 150 4973ft 168kts
13-Sep-18 13:56 34.719840 -120.332697 150 4965ft 164kts
13-Sep-18 13:57 34.682161 -120.301574 150 4961ft 163kts
13-Sep-18 13:58 34.646538 -120.268095 132 4958ft 166kts
13-Sep-18 13:59 34.618252 -120.224342 131 4953ft 164kts
13-Sep-18 14:00 34.590105 -120.181084 131 4953ft 163kts
13-Sep-18 14:01 34.561933 -120.137853 131 4953ft 163kts
13-Sep-18 14:02 34.533573 -120.095765 150 4992ft 159kts
13-Sep-18 14:03 34.491339 -120.090212 181 5006ft 153kts
13-Sep-18 14:04 34.449496 -120.089294 182 5001ft 144kts
13-Sep-18 14:05 34.422724 -120.060419 91 4307ft 160kts
13-Sep-18 14:06 34.424063 -120.007675 89 2716ft 160kts
13-Sep-18 14:07 34.425230 -119.962639 90 1847ft 112kts
13-Sep-18 14:08 34.425977 -119.927050 91 1236ft 104kts
13-Sep-18 14:09 34.426730 -119.891508 91 659ft 105kts
13-Sep-18 14:10 34.427506 -119.857640 89 99ft 96kts
13-Sep-18 14:11 34.426807 -119.846395 154 14ft 0kts
13-Sep-18 14:12 34.426628 -119.841164 89 13ft 41kts
13-Sep-18 14:13 34.422254 -119.836209 261 11ft 4kts
13-Sep-18 14:14 34.422253 -119.836214 261 11ft 0kts
13-Sep-18 14:15 34.422253 -119.836214 261 11ft 0kts
13-Sep-18 14:16 34.422253 -119.836214 261 11ft 0kts
13-Sep-18 14:17 34.422253 -119.836214 261 11ft 0kts
13-Sep-18 14:18 34.422253 -119.836214 261 11ft 0kts
13-Sep-18 14:19 34.422253 -119.836214 261 11ft 0kts
13-Sep-18 14:20 34.422253 -119.836214 261 11ft 0kts
13-Sep-18 14:21 34.422253 -119.836214 261 11ft 0kts
13-Sep-18 14:22 34.422253 -119.836214 261 11ft 0kts
13-Sep-18 14:23 34.422253 -119.836214 261 11ft 0kts
13-Sep-18 14:24 34.422253 -119.836214 261 11ft 0kts
13-Sep-18 14:25 34.422253 -119.836214 261 11ft 0kts
13-Sep-18 14:26 34.422253 -119.836214 261 11ft 0kts

Navigation Log

Ident Type
Flight plan parsing failed, navigation log unavailable